Time;durP1;ratioP1;P1;durP2;ratioP2;P2;SDS_P1;SDS_P2;PMS_P1;PMS_P2;Temp;Humidity;BMP_temperature;BMP_pressure;BME280_temperature;BME280_humidity;BME280_pressure;Samples;Min_cycle;Max_cycle;Signal;HPM_P1;HPM_P2
2022/11/21 00:00:45;;;;;;;;;48.25;41.75;;;;;9.59;82.30;100636.19;5033609;28;45554;-86
2022/11/21 00:03:11;;;;;;;;;49.75;42.25;;;;;9.53;82.16;100634.25;5032732;28;45461;-86
2022/11/21 00:05:42;;;;;;;;;47.25;41.00;;;;;9.52;82.13;100623.69;5035925;28;47140;-86
2022/11/21 00:08:09;;;;;;;;;47.00;41.50;;;;;9.08;82.04;100552.13;5034354;28;45467;-86
2022/11/21 00:10:35;;;;;;;;;45.25;40.75;;;;;9.17;82.31;100589.19;5048340;28;45334;-86
2022/11/21 00:13:00;;;;;;;;;46.75;41.00;;;;;9.43;82.30;100634.75;5049565;28;45290;-86
2022/11/21 00:15:26;;;;;;;;;47.67;42.00;;;;;9.11;82.37;100572.31;5040763;28;46252;-86
2022/11/21 00:17:52;;;;;;;;;40.75;38.00;;;;;9.41;82.59;100627.63;5038640;28;45378;-84
2022/11/21 00:20:19;;;;;;;;;42.50;39.25;;;;;9.24;82.58;100599.06;5047219;28;45228;-86
2022/11/21 00:22:45;;;;;;;;;43.50;40.00;;;;;9.22;82.41;100599.84;5028713;28;45116;-86
2022/11/21 00:25:11;;;;;;;;;42.50;38.50;;;;;9.20;82.41;100589.28;5024278;28;47273;-85
2022/11/21 00:27:37;;;;;;;;;41.00;38.25;;;;;8.77;82.57;100508.16;5014665;28;45407;-86
2022/11/21 00:30:03;;;;;;;;;42.33;39.67;;;;;9.29;82.78;100599.22;5033086;28;45593;-86
2022/11/21 00:32:29;;;;;;;;;44.00;40.00;;;;;9.01;82.62;100535.28;5033551;28;45523;-85
2022/11/21 00:34:54;;;;;;;;;48.67;43.00;;;;;9.03;82.81;100548.44;5032875;28;45909;-85
2022/11/21 00:37:19;;;;;;;;;47.67;41.67;;;;;9.23;83.09;100578.91;5030291;28;45928;-83
2022/11/21 00:39:45;;;;;;;;;53.00;46.00;;;;;9.21;82.84;100564.88;5031486;28;45436;-86
2022/11/21 00:42:10;;;;;;;;;51.33;44.67;;;;;8.95;82.85;100513.19;5031087;28;45549;-86
2022/11/21 00:44:36;;;;;;;;;57.00;49.00;;;;;9.04;83.16;100535.38;5032379;28;45359;-84
2022/11/21 00:47:01;;;;;;;;;48.75;42.75;;;;;9.19;82.64;100563.91;5014674;28;45541;-86
2022/11/21 00:49:26;;;;;;;;;59.33;50.00;;;;;8.74;82.78;100479.22;5032858;28;45284;-84
2022/11/21 00:51:52;;;;;;;;;54.00;45.67;;;;;9.09;83.06;100548.66;5036060;28;45407;-86
2022/11/21 00:54:17;;;;;;;;;59.33;51.00;;;;;8.95;83.13;100516.69;5033432;28;47713;-86
2022/11/21 00:56:42;;;;;;;;;55.67;47.67;;;;;9.20;83.51;100556.94;5035978;28;45356;-86
2022/11/21 00:59:07;;;;;;;;;53.67;46.33;;;;;8.97;83.36;100522.91;5034411;28;45330;-85
2022/11/21 01:01:33;;;;;;;;;61.00;51.67;;;;;9.18;83.55;100554.25;5034464;28;45319;-87
2022/11/21 01:03:58;;;;;;;;;58.00;50.00;;;;;8.96;83.16;100518.47;5046034;28;47241;-84
2022/11/21 01:06:24;;;;;;;;;62.67;52.33;;;;;8.83;83.22;100483.91;5029710;28;45205;-84
2022/11/21 01:08:50;;;;;;;;;61.33;52.00;;;;;9.17;83.16;100538.47;5053818;28;44878;-86
2022/11/21 01:11:18;;;;;;;;;59.00;49.25;;;;;9.08;83.34;100523.28;5048417;28;45645;-86
2022/11/21 01:13:44;;;;;;;;;62.00;51.50;;;;;8.91;83.29;100495.56;5051638;28;47372;-85
2022/11/21 01:16:14;;;;;;;;;57.50;49.00;;;;;9.13;83.30;100539.19;5042851;28;45411;-84
2022/11/21 01:18:39;;;;;;;;;59.75;50.25;;;;;8.88;83.26;100493.72;5045772;28;45540;-86
2022/11/21 01:21:15;;;;;;;;;62.75;52.75;;;;;9.14;83.17;100531.38;5049309;28;45237;-85
2022/11/21 01:23:40;;;;;;;;;63.25;53.75;;;;;9.13;83.35;100519.13;5050571;28;46885;-84
2022/11/21 01:26:10;;;;;;;;;64.33;53.67;;;;;8.70;83.26;100438.00;5050989;28;45108;-85
2022/11/21 01:28:35;;;;;;;;;60.25;51.25;;;;;9.02;83.08;100495.13;5038500;28;45439;-86
2022/11/21 01:31:11;;;;;;;;;59.00;50.25;;;;;9.18;83.26;100516.66;5043813;28;45225;-84
2022/11/21 01:33:38;;;;;;;;;64.75;54.75;;;;;9.18;82.97;100522.78;5034920;28;46489;-86
2022/11/21 01:36:16;;;;;;;;;64.50;54.25;;;;;9.20;82.94;100514.97;5034486;28;45530;-86
2022/11/21 01:38:45;;;;;;;;;64.75;54.75;;;;;9.18;83.08;100493.94;5035716;28;45497;-85
2022/11/21 01:41:12;;;;;;;;;60.75;51.25;;;;;9.24;83.01;100488.91;5045674;28;45410;-85
2022/11/21 01:43:38;;;;;;;;;60.75;51.75;;;;;9.13;83.35;100461.44;5028271;28;47223;-85
2022/11/21 01:46:06;;;;;;;;;59.75;50.00;;;;;9.30;82.92;100486.50;5050997;28;45116;-85
2022/11/21 01:49:20;;;;;;;;;57.50;49.25;;;;;9.21;83.00;100473.09;5033686;28;45416;-86
2022/11/21 01:51:57;;;;;;;;;50.75;44.25;;;;;9.19;82.79;100452.88;4952700;28;45394;-86
2022/11/21 01:54:35;;;;;;;;;50.50;43.75;;;;;9.40;82.89;100478.97;4969251;28;45544;-86
2022/11/21 01:57:08;;;;;;;;;56.50;48.25;;;;;9.39;82.80;100485.94;5016756;28;45328;-85
2022/11/21 01:59:40;;;;;;;;;55.25;48.00;;;;;9.11;82.74;100428.13;5047210;28;45183;-86
2022/11/21 02:02:09;;;;;;;;;56.50;48.50;;;;;9.29;82.57;100463.75;5047745;28;45416;-85
2022/11/21 02:04:35;;;;;;;;;60.00;50.75;;;;;9.39;82.66;100471.94;5051555;28;45618;-85
2022/11/21 02:07:05;;;;;;;;;57.00;47.00;;;;;9.39;82.61;100462.34;5048553;28;44950;-84
2022/11/21 02:09:33;;;;;;;;;55.75;48.00;;;;;9.32;82.67;100456.84;5053116;28;45216;-84
2022/11/21 02:12:05;;;;;;;;;54.25;46.75;;;;;9.37;82.75;100460.53;5038208;28;45296;-84
2022/11/21 02:14:32;;;;;;;;;51.50;44.75;;;;;9.22;82.83;100430.31;5034932;28;46365;-85
2022/11/21 02:17:02;;;;;;;;;54.25;46.25;;;;;9.33;82.81;100435.91;5034289;28;45489;-85
2022/11/21 02:19:41;;;;;;;;;48.75;42.75;;;;;9.42;82.74;100451.09;5016611;28;45576;-85
2022/11/21 02:22:24;;;;;;;;;49.00;43.75;;;;;9.20;82.70;100413.59;5016621;28;45588;-85
2022/11/21 02:25:23;;;;;;;;;49.00;43.25;;;;;9.43;82.58;100442.38;5033568;28;46529;-85
2022/11/21 02:27:54;;;;;;;;;41.75;38.25;;;;;9.41;82.61;100446.66;5044090;28;45344;-86
2022/11/21 02:30:19;;;;;;;;;43.50;40.00;;;;;9.40;82.62;100440.50;5044556;28;45278;-86
2022/11/21 02:32:46;;;;;;;;;43.75;39.50;;;;;9.19;82.36;100398.72;5051143;28;45016;-86
2022/11/21 02:35:13;;;;;;;;;37.75;35.75;;;;;9.40;82.64;100426.50;5040568;28;45485;-84
2022/11/21 02:37:39;;;;;;;;;36.50;34.75;;;;;9.08;82.64;100367.75;5034186;28;45489;-86
2022/11/21 02:40:08;;;;;;;;;32.50;31.00;;;;;9.20;82.45;100400.50;5016490;28;45380;-86
2022/11/21 02:43:03;;;;;;;;;38.00;36.25;;;;;9.26;82.64;100399.81;5034556;28;45492;-85
2022/11/21 02:45:35;;;;;;;;;42.00;38.25;;;;;9.34;82.50;100413.19;5026217;28;45543;-85
2022/11/21 02:48:00;;;;;;;;;30.25;30.25;;;;;9.03;82.53;100371.09;5032613;28;45404;-85
2022/11/21 02:50:28;;;;;;;;;29.67;29.00;;;;;9.30;82.57;100409.56;5033070;28;45580;-83
2022/11/21 02:52:54;;;;;;;;;29.25;27.75;;;;;9.29;82.36;100413.94;5034339;28;45467;-85
2022/11/21 02:55:20;;;;;;;;;25.50;24.25;;;;;9.27;82.51;100399.00;5033842;28;46234;-84
2022/11/21 02:57:45;;;;;;;;;24.50;24.50;;;;;9.27;82.88;100401.63;5034329;28;45490;-85
2022/11/21 03:00:11;;;;;;;;;24.00;22.67;;;;;8.78;82.69;100313.44;5034213;28;45378;-86
2022/11/21 03:02:36;;;;;;;;;20.00;18.50;;;;;8.97;82.68;100343.78;5049746;28;45448;-84
2022/11/21 03:05:04;;;;;;;;;17.33;16.00;;;;;9.04;82.79;100372.88;5051944;28;45448;-86
2022/11/21 03:07:29;;;;;;;;;23.25;22.00;;;;;9.23;82.98;100400.59;5050838;28;45101;-86
2022/11/21 03:09:54;;;;;;;;;17.00;17.00;;;;;9.02;82.82;100357.94;5032109;28;45459;-85
2022/11/21 03:12:20;;;;;;;;;16.25;16.00;;;;;9.22;83.28;100393.59;5032050;28;45384;-84
2022/11/21 03:14:45;;;;;;;;;12.67;11.00;;;;;9.24;82.75;100393.63;5031792;28;46855;-86
2022/11/21 03:17:10;;;;;;;;;14.67;12.67;;;;;8.91;82.85;100312.09;5034410;28;45297;-84
2022/11/21 03:19:36;;;;;;;;;10.67;9.67;;;;;8.89;82.76;100312.06;5037526;28;45278;-84
2022/11/21 03:22:01;;;;;;;;;11.67;11.67;;;;;9.07;83.18;100335.41;5048807;28;45033;-86
2022/11/21 03:24:27;;;;;;;;;13.25;9.75;;;;;9.29;83.05;100374.59;5046232;28;45923;-86
2022/11/21 03:26:52;;;;;;;;;7.50;7.00;;;;;9.14;82.79;100332.13;5047339;28;45273;-86
2022/11/21 03:29:17;;;;;;;;;10.33;9.00;;;;;9.29;82.85;100352.72;5051925;28;45108;-85
2022/11/21 03:31:43;;;;;;;;;8.00;7.00;;;;;8.93;82.95;100281.59;5031645;28;45454;-84
2022/11/21 03:34:08;;;;;;;;;5.75;5.75;;;;;9.07;82.57;100295.19;5048458;28;46037;-85
2022/11/21 03:36:33;;;;;;;;;7.50;5.50;;;;;9.35;82.84;100328.44;5049007;28;44933;-84
2022/11/21 03:38:59;;;;;;;;;7.00;6.50;;;;;8.89;82.75;100243.03;5052107;28;45001;-86
2022/11/21 03:41:28;;;;;;;;;12.00;9.67;;;;;9.12;82.80;100283.13;5049726;28;45052;-86
2022/11/21 03:44:13;;;;;;;;;12.25;10.00;;;;;9.35;83.08;100320.56;5048079;28;46010;-85
2022/11/21 03:46:41;;;;;;;;;11.50;9.00;;;;;9.29;82.77;100311.66;5048961;28;45551;-86
2022/11/21 03:49:07;;;;;;;;;12.75;12.25;;;;;9.33;82.83;100317.00;5051818;28;45138;-86
2022/11/21 03:51:33;;;;;;;;;13.00;10.25;;;;;9.30;82.82;100312.53;5051914;28;44989;-86
2022/11/21 03:53:59;;;;;;;;;6.25;6.25;;;;;9.27;82.86;100307.22;5053644;28;46153;-86
2022/11/21 03:56:25;;;;;;;;;9.00;8.00;;;;;9.23;83.20;100306.22;5044620;28;45483;-85
2022/11/21 03:58:51;;;;;;;;;7.75;6.75;;;;;9.23;83.01;100305.31;5043203;28;45442;-87
2022/11/21 04:01:16;;;;;;;;;7.00;5.50;;;;;9.22;83.10;100301.81;5038085;28;45643;-86
2022/11/21 04:03:43;;;;;;;;;10.25;8.75;;;;;9.16;83.21;100285.91;5036917;28;48037;-84
2022/11/21 04:06:09;;;;;;;;;8.75;7.75;;;;;8.99;83.17;100251.25;5039047;28;45912;-86
2022/11/21 04:08:35;;;;;;;;;14.25;10.75;;;;;8.99;82.98;100251.25;5038447;28;45434;-85
2022/11/21 04:11:00;;;;;;;;;16.25;15.00;;;;;9.03;82.95;100253.13;5038131;28;45316;-85
2022/11/21 04:13:26;;;;;;;;;9.75;9.50;;;;;9.16;82.87;100287.59;5032239;28;46919;-85
2022/11/21 04:15:51;;;;;;;;;10.25;10.00;;;;;9.17;82.83;100279.81;5030553;28;45574;-86
2022/11/21 04:18:17;;;;;;;;;10.75;10.75;;;;;8.98;82.83;100238.09;5033944;28;45557;-85
2022/11/21 04:20:42;;;;;;;;;13.25;12.50;;;;;9.15;82.69;100272.72;5033293;28;45694;-86
2022/11/21 04:23:08;;;;;;;;;9.50;8.25;;;;;8.93;82.46;100230.09;5033015;28;45545;-86
2022/11/21 04:25:33;;;;;;;;;9.25;9.00;;;;;8.86;82.54;100211.47;5024307;28;45993;-85
2022/11/21 04:28:00;;;;;;;;;8.00;7.00;;;;;9.10;82.50;100251.59;5045299;28;45415;-86
2022/11/21 04:30:26;;;;;;;;;5.25;4.00;;;;;8.81;82.46;100205.19;5028792;28;45032;-85
2022/11/21 04:32:55;;;;;;;;;7.00;6.50;;;;;8.99;82.63;100234.63;5035996;28;48126;-86
2022/11/21 04:35:22;;;;;;;;;7.50;7.50;;;;;9.01;82.23;100243.41;5036658;28;45490;-86
2022/11/21 04:37:47;;;;;;;;;9.00;6.50;;;;;8.76;82.13;100200.69;5026483;28;45152;-85
2022/11/21 04:40:14;;;;;;;;;5.25;3.75;;;;;8.76;82.46;100195.44;5047466;28;45316;-85
2022/11/21 04:42:46;;;;;;;;;2.50;2.00;;;;;8.57;82.38;100159.03;5050482;28;45658;-86
2022/11/21 04:45:13;;;;;;;;;6.75;3.50;;;;;8.95;82.46;100222.25;5046182;28;45272;-84
2022/11/21 04:47:40;;;;;;;;;7.00;7.00;;;;;8.94;82.54;100216.13;5026401;28;45360;-85
2022/11/21 04:50:06;;;;;;;;;5.50;2.50;;;;;8.65;82.73;100162.78;5044455;28;45383;-85
2022/11/21 04:52:33;;;;;;;;;3.25;3.00;;;;;8.71;82.80;100168.22;5045312;28;47280;-85
2022/11/21 04:54:58;;;;;;;;;7.25;3.50;;;;;8.71;82.46;100162.97;5046709;28;45540;-85
2022/11/21 04:57:25;;;;;;;;;6.25;6.25;;;;;8.95;82.34;100196.06;5032645;28;45418;-85
2022/11/21 04:59:51;;;;;;;;;7.00;6.00;;;;;8.48;81.82;100133.44;5031586;28;45535;-86
2022/11/21 05:02:16;;;;;;;;;6.33;5.67;;;;;8.22;82.06;100077.53;5039884;28;46148;-85
2022/11/21 05:04:41;;;;;;;;;9.00;7.00;;;;;8.96;81.67;100196.09;5047059;28;44906;-85
2022/11/21 05:07:07;;;;;;;;;9.00;7.67;;;;;8.61;81.50;100125.94;5050152;28;44912;-85
2022/11/21 05:09:32;;;;;;;;;9.00;7.75;;;;;8.36;81.50;100090.19;5048528;28;45028;-85
2022/11/21 05:14:41;;;;;;;;;6.00;6.00;;;;;8.86;81.86;100182.66;5047732;28;45311;-85
2022/11/21 05:17:07;;;;;;;;;8.00;7.50;;;;;8.87;82.11;100180.09;5049012;28;44901;-85
2022/11/21 05:19:32;;;;;;;;;10.33;9.00;;;;;8.45;81.67;100101.88;5046428;28;45202;-86
2022/11/21 05:21:58;;;;;;;;;11.50;9.25;;;;;8.27;82.00;100055.03;5050266;28;45071;-86
2022/11/21 05:24:23;;;;;;;;;11.00;11.00;;;;;8.93;82.16;100176.78;5048519;28;45085;-85
2022/11/21 05:26:48;;;;;;;;;11.75;10.25;;;;;8.23;82.03;100055.78;5045233;28;45442;-85
2022/11/21 05:29:14;;;;;;;;;11.00;9.33;;;;;8.96;82.13;100184.72;5046367;28;47365;-86
2022/11/21 05:31:39;;;;;;;;;9.33;8.00;;;;;8.64;82.13;100113.84;5047497;28;46691;-85
2022/11/21 05:34:04;;;;;;;;;7.00;7.00;;;;;8.94;81.79;100154.97;5046701;28;45332;-83
2022/11/21 05:36:30;;;;;;;;;9.50;8.50;;;;;9.06;81.79;100173.69;5046304;28;44918;-85
2022/11/21 05:38:55;;;;;;;;;7.50;6.50;;;;;9.02;82.15;100163.97;5035623;28;45357;-85
2022/11/21 05:41:20;;;;;;;;;11.00;11.00;;;;;8.92;82.16;100144.44;5017237;28;48429;-85
2022/11/21 05:43:46;;;;;;;;;8.00;7.00;;;;;8.86;82.20;100125.00;5035390;28;45469;-85
2022/11/21 05:46:14;;;;;;;;;9.25;9.25;;;;;9.16;81.94;100167.91;5035455;28;45316;-84
2022/11/21 05:48:39;;;;;;;;;10.00;10.00;;;;;9.20;81.75;100161.00;5036190;28;45427;-85
2022/11/21 05:51:05;;;;;;;;;13.75;13.25;;;;;9.01;81.77;100115.91;5048391;28;45979;-85
2022/11/21 05:53:30;;;;;;;;;16.50;15.75;;;;;9.18;82.09;100145.25;5048326;28;45385;-85
2022/11/21 05:56:01;;;;;;;;;15.50;14.00;;;;;9.01;82.12;100100.19;5031632;28;45058;-85
2022/11/21 05:58:27;;;;;;;;;24.25;20.75;;;;;8.91;82.00;100060.50;5046792;28;45494;-84
2022/11/21 06:00:57;;;;;;;;;17.50;14.50;;;;;9.29;82.58;100116.72;5044736;28;45670;-86
2022/11/21 06:03:29;;;;;;;;;13.75;13.25;;;;;9.26;82.20;100091.31;5027798;28;45308;-86
2022/11/21 06:06:06;;;;;;;;;18.75;15.75;;;;;9.38;82.26;100114.38;5029457;28;45529;-84
2022/11/21 06:08:34;;;;;;;;;13.75;12.25;;;;;9.40;82.20;100096.03;5052893;28;45195;-85
2022/11/21 06:11:00;;;;;;;;;12.50;10.50;;;;;9.45;82.05;100102.31;5050509;28;45726;-86
2022/11/21 06:13:26;;;;;;;;;12.00;11.50;;;;;9.19;81.89;100044.75;5049794;28;45155;-85
2022/11/21 06:15:59;;;;;;;;;13.50;13.25;;;;;9.27;81.72;100035.41;5048431;28;45348;-85
2022/11/21 06:18:25;;;;;;;;;14.50;13.75;;;;;9.27;81.50;100037.13;5049745;28;45246;-85
2022/11/21 06:20:50;;;;;;;;;14.50;14.25;;;;;9.48;81.57;100053.47;5069548;28;48051;-83
2022/11/21 06:23:16;;;;;;;;;13.25;13.00;;;;;9.48;81.54;100056.06;5041645;28;45567;-86
2022/11/21 06:25:43;;;;;;;;;16.00;14.75;;;;;9.48;81.53;100076.19;5043130;28;45659;-91
2022/11/21 06:28:08;;;;;;;;;13.25;13.00;;;;;8.81;80.99;99953.66;5050177;28;45434;-86
2022/11/21 06:30:34;;;;;;;;;13.50;12.75;;;;;8.81;81.30;99953.66;5049785;28;45209;-87
2022/11/21 06:33:05;;;;;;;;;16.00;15.75;;;;;8.65;81.54;99905.19;5050953;28;45210;-85
2022/11/21 06:35:31;;;;;;;;;17.25;15.75;;;;;8.65;80.91;99905.19;5050381;28;45130;-85
2022/11/21 06:37:57;;;;;;;;;14.50;14.50;;;;;9.44;81.26;100037.59;5051140;28;45028;-85
2022/11/21 06:40:23;;;;;;;;;17.00;16.00;;;;;9.01;80.95;99974.38;5048675;28;45555;-86
2022/11/21 06:42:48;;;;;;;;;18.00;14.25;;;;;9.48;81.15;100040.34;5048009;28;45126;-86
2022/11/21 06:45:14;;;;;;;;;16.00;15.00;;;;;9.08;81.30;99971.91;5049259;28;45104;-86
2022/11/21 06:47:39;;;;;;;;;16.00;14.50;;;;;9.48;80.97;100055.19;5050134;28;45280;-86
2022/11/21 06:50:05;;;;;;;;;17.00;16.25;;;;;8.86;80.90;99945.09;5045090;28;46097;-85
2022/11/21 06:52:34;;;;;;;;;13.50;13.50;;;;;9.34;80.92;100015.47;5041923;28;45380;-88
2022/11/21 06:54:59;;;;;;;;;15.50;14.25;;;;;8.94;80.99;99921.72;5052225;28;45095;-90
2022/11/21 06:57:25;;;;;;;;;15.25;14.00;;;;;8.95;81.15;99927.00;5034731;28;44961;-90
2022/11/21 06:59:50;;;;;;;;;15.75;14.75;;;;;9.00;80.89;99906.16;5022641;28;45403;-89
2022/11/21 07:02:15;;;;;;;;;13.67;13.00;;;;;9.25;80.90;99945.28;5031916;28;45520;-86
2022/11/21 07:04:41;;;;;;;;;13.50;11.25;;;;;9.13;80.46;99910.03;5038732;28;45847;-84
2022/11/21 07:07:06;;;;;;;;;16.33;13.33;;;;;9.55;80.41;99987.19;5029084;28;45493;-85
2022/11/21 07:09:35;;;;;;;;;12.50;12.50;;;;;8.98;80.26;99887.78;5047753;28;47899;-85
2022/11/21 07:14:45;;;;;;;;;19.75;16.00;;;;;9.24;80.30;99930.41;5043173;28;45459;-85
2022/11/21 07:17:11;;;;;;;;;14.00;13.50;;;;;9.29;80.01;99948.91;5043259;28;45324;-85
2022/11/21 07:19:36;;;;;;;;;19.00;15.25;;;;;8.69;80.24;99855.53;5024432;28;47428;-85
2022/11/21 07:22:01;;;;;;;;;16.50;15.75;;;;;8.31;80.26;99790.69;5050261;28;45089;-85
2022/11/21 07:24:27;;;;;;;;;17.50;17.25;;;;;8.83;80.58;99884.75;5049140;28;44977;-83
2022/11/21 07:26:52;;;;;;;;;18.00;14.00;;;;;8.98;80.90;99919.25;5039363;28;45517;-85
2022/11/21 07:29:17;;;;;;;;;13.67;12.33;;;;;8.84;80.96;99893.50;5034893;28;45515;-84
2022/11/21 07:31:43;;;;;;;;;19.33;18.33;;;;;8.98;81.12;99910.50;5037445;28;55437;-84
2022/11/21 07:34:08;;;;;;;;;17.33;16.00;;;;;8.92;80.91;99902.47;5032394;28;45509;-84
2022/11/21 07:36:34;;;;;;;;;20.00;18.75;;;;;8.83;81.29;99886.50;5043891;28;45511;-84
2022/11/21 07:39:00;;;;;;;;;18.75;18.25;;;;;8.95;81.24;99889.44;5041931;28;45626;-85
2022/11/21 07:41:25;;;;;;;;;19.25;17.00;;;;;8.74;81.34;99838.22;5047283;28;45207;-84
2022/11/21 07:43:51;;;;;;;;;22.67;18.67;;;;;9.03;80.73;99888.78;5040698;28;50087;-85
2022/11/21 07:46:16;;;;;;;;;19.00;19.00;;;;;8.88;81.32;99853.44;5035371;28;45334;-86
2022/11/21 07:48:44;;;;;;;;;23.67;20.67;;;;;9.18;81.41;99882.19;5038012;28;45336;-89
2022/11/21 07:51:12;;;;;;;;;24.75;24.75;;;;;9.22;81.01;99878.81;5048487;28;45577;-85
2022/11/21 07:53:40;;;;;;;;;30.50;27.25;;;;;9.18;81.31;99841.13;5040435;28;45250;-95
2022/11/21 07:56:08;;;;;;;;;28.25;26.50;;;;;8.87;80.96;99766.09;5039597;28;45377;-83
2022/11/21 07:58:34;;;;;;;;;24.25;21.00;;;;;9.37;80.95;99818.00;5042726;28;45365;-85
2022/11/21 08:01:05;;;;;;;;;21.50;20.50;;;;;9.40;81.15;99832.03;5038445;28;46400;-88
2022/11/21 08:03:31;;;;;;;;;19.50;18.50;;;;;9.35;80.73;99807.44;5040230;28;45595;-88
2022/11/21 08:06:00;;;;;;;;;23.75;22.25;;;;;9.16;80.81;99774.69;5039934;28;45463;-87
2022/11/21 08:08:26;;;;;;;;;23.00;19.25;;;;;8.74;80.65;99698.50;5036339;28;47441;-89
2022/11/21 08:10:51;;;;;;;;;17.25;15.25;;;;;9.30;80.52;99788.97;5039310;28;45483;-88
2022/11/21 08:13:16;;;;;;;;;18.67;16.33;;;;;8.96;80.47;99732.22;5037779;28;45368;-85
2022/11/21 08:15:42;;;;;;;;;21.75;18.75;;;;;9.13;80.70;99752.75;5043734;28;45455;-86
2022/11/21 08:18:12;;;;;;;;;25.25;17.50;;;;;8.67;80.41;99667.75;5038846;28;45728;-86
2022/11/21 08:20:40;;;;;;;;;24.00;22.50;;;;;9.43;80.32;99811.16;5039871;28;45428;-84
2022/11/21 08:23:06;;;;;;;;;21.25;17.75;;;;;9.35;80.46;99780.34;5043647;28;45304;-85
2022/11/21 08:25:39;;;;;;;;;17.75;16.50;;;;;9.50;80.62;99814.78;5030164;28;45060;-88
2022/11/21 08:28:06;;;;;;;;;19.50;13.75;;;;;9.53;80.59;99825.38;5031313;28;47147;-89
2022/11/21 08:30:32;;;;;;;;;18.75;18.75;;;;;9.52;80.68;99810.50;5028950;28;45690;-81
2022/11/21 08:32:58;;;;;;;;;18.50;15.25;;;;;9.56;80.74;99809.72;5046167;28;45484;-84
2022/11/21 08:35:24;;;;;;;;;20.00;17.50;;;;;9.53;80.53;99801.78;5049546;28;45139;-87
2022/11/21 08:37:56;;;;;;;;;16.75;15.50;;;;;9.52;80.45;99800.00;5035923;28;45922;-85
2022/11/21 08:40:21;;;;;;;;;17.00;16.50;;;;;9.38;80.23;99776.06;5037184;28;45435;-86
2022/11/21 08:42:46;;;;;;;;;16.50;15.50;;;;;9.32;80.40;99777.66;5022979;28;46575;-84
2022/11/21 08:45:12;;;;;;;;;17.50;16.25;;;;;9.32;80.62;99768.06;5031738;28;45427;-86
2022/11/21 08:47:37;;;;;;;;;20.00;19.00;;;;;9.29;80.62;99755.75;5032908;28;46031;-84
2022/11/21 08:50:03;;;;;;;;;19.00;19.00;;;;;9.25;80.64;99732.94;5036283;28;45688;-81
2022/11/21 08:52:28;;;;;;;;;20.25;20.25;;;;;9.40;80.16;99749.88;5036426;28;45639;-91
2022/11/21 08:54:53;;;;;;;;;25.33;21.00;;;;;9.37;80.44;99726.22;5026176;28;45550;-89
2022/11/21 08:57:19;;;;;;;;;27.00;21.33;;;;;9.63;80.77;99760.91;5020226;28;45857;-90
2022/11/21 08:59:44;;;;;;;;;20.75;19.00;;;;;9.39;80.35;99721.88;5016923;28;52865;-93
2022/11/21 09:02:10;;;;;;;;;20.33;20.00;;;;;9.32;80.63;99706.88;5037995;28;45300;-92
2022/11/21 09:04:36;;;;;;;;;19.25;18.50;;;;;9.58;80.69;99752.91;5043904;28;45500;-87
2022/11/21 09:07:02;;;;;;;;;21.50;20.25;;;;;9.59;80.80;99740.69;5048334;28;46376;-82
2022/11/21 09:09:28;;;;;;;;;22.00;20.75;;;;;9.51;80.85;99717.81;5048526;28;45253;-87
2022/11/21 09:11:53;;;;;;;;;21.75;20.50;;;;;9.35;80.84;99676.34;5056245;28;44973;-88
2022/11/21 09:19:47;;;;;;;;;25.25;23.25;;;;;9.78;80.71;99724.50;5054344;28;45303;-80
2022/11/21 09:22:12;;;;;;;;;21.50;19.00;;;;;9.81;80.51;99719.31;5051596;28;45274;-90
2022/11/21 09:24:37;;;;;;;;;22.67;21.67;;;;;9.45;80.43;99651.19;5053488;28;45188;-88
2022/11/21 09:27:03;;;;;;;;;26.00;24.25;;;;;9.87;80.46;99708.94;5033850;28;47447;-87
2022/11/21 09:29:28;;;;;;;;;23.33;22.67;;;;;9.39;80.24;99619.59;5040260;28;45021;-89
2022/11/21 09:31:53;;;;;;;;;21.33;19.33;;;;;9.52;80.34;99637.38;5040913;28;45027;-87
2022/11/21 09:34:19;;;;;;;;;18.67;16.67;;;;;9.42;80.22;99603.94;5048029;28;45402;-89
2022/11/21 09:36:44;;;;;;;;;19.50;16.50;;;;;9.54;80.59;99626.06;5044183;28;44953;-91
2022/11/21 09:39:09;;;;;;;;;23.00;15.67;;;;;9.37;79.87;99563.63;5048611;28;45124;-84
2022/11/21 09:41:52;;;;;;;;;19.67;19.00;;;;;9.51;80.15;99570.94;5030534;28;45443;-89
2022/11/21 09:44:38;;;;;;;;;15.75;15.25;;;;;10.00;80.18;99642.72;5032955;28;44938;-90
2022/11/21 09:47:28;;;;;;;;;20.50;20.25;;;;;9.38;79.74;99521.69;5041355;28;45190;-90
2022/11/21 09:50:05;;;;;;;;;22.50;20.00;;;;;9.64;80.18;99558.03;5039851;28;45040;-88
2022/11/21 09:52:50;;;;;;;;;22.50;18.25;;;;;9.54;80.16;99531.63;5049286;28;45286;-83
2022/11/21 09:55:35;;;;;;;;;14.50;11.75;;;;;10.09;80.16;99600.00;5044950;28;45265;-90
2022/11/21 09:58:10;;;;;;;;;18.00;17.25;;;;;10.18;80.29;99594.03;5042087;28;45255;-91
2022/11/21 10:00:36;;;;;;;;;14.75;14.00;;;;;10.21;80.09;99573.97;5038968;28;45305;-87
2022/11/21 10:03:01;;;;;;;;;15.25;14.25;;;;;9.87;79.52;99512.13;5027592;28;45387;-89
2022/11/21 10:05:58;;;;;;;;;16.00;16.00;;;;;10.32;79.85;99574.19;5037332;28;45425;-88
2022/11/21 10:08:29;;;;;;;;;17.25;16.00;;;;;10.20;79.78;99534.56;5034863;28;45620;-89
2022/11/21 10:11:33;;;;;;;;;20.00;17.25;;;;;10.43;79.58;99553.34;5031033;28;45081;-87
2022/11/21 10:14:04;;;;;;;;;15.25;15.25;;;;;10.44;79.32;99544.59;5047587;28;45223;-90
2022/11/21 10:17:01;;;;;;;;;18.00;17.25;;;;;10.49;79.76;99537.66;5043663;28;45463;-89
2022/11/21 10:20:04;;;;;;;;;16.25;15.75;;;;;10.57;79.44;99520.28;5024797;28;46067;-88
2022/11/21 10:23:13;;;;;;;;;15.75;14.75;;;;;10.51;78.45;99493.94;5031479;28;45322;-90
2022/11/21 10:25:43;;;;;;;;;12.00;12.00;;;;;10.59;79.01;99500.19;5031062;28;45116;-89
2022/11/21 10:28:08;;;;;;;;;14.00;13.00;;;;;10.62;78.76;99492.31;5029339;28;45455;-88
2022/11/21 10:30:34;;;;;;;;;15.00;15.00;;;;;10.06;78.40;99395.19;5011130;28;47142;-88
2022/11/21 10:33:04;;;;;;;;;12.50;11.50;;;;;10.48;78.78;99457.97;5011219;28;46830;-90
2022/11/21 10:35:44;;;;;;;;;12.00;10.75;;;;;10.63;78.79;99473.06;5030284;28;45442;-87
2022/11/21 10:38:26;;;;;;;;;11.00;10.50;;;;;10.67;78.25;99474.00;5043638;28;45169;-89
2022/11/21 10:41:01;;;;;;;;;9.75;9.75;;;;;10.55;78.51;99440.56;5037673;28;46372;-81
2022/11/21 10:46:24;;;;;;;;;9.50;9.00;;;;;10.42;78.08;99409.72;5052337;28;45409;-86
2022/11/21 10:49:01;;;;;;;;;9.67;8.67;;;;;10.59;77.83;99419.63;5041143;28;47376;-80
2022/11/21 10:51:48;;;;;;;;;8.00;7.25;;;;;10.29;78.25;99378.03;5036650;28;45955;-84
2022/11/21 10:54:32;;;;;;;;;6.00;5.00;;;;;10.60;78.13;99425.75;5039830;28;45512;-90
2022/11/21 10:57:18;;;;;;;;;5.50;5.50;;;;;10.51;78.58;99407.25;5043578;28;45345;-93
2022/11/21 11:00:19;;;;;;;;;9.25;7.00;;;;;10.55;78.45;99406.41;5041783;28;46096;-87
2022/11/21 11:02:56;;;;;;;;;8.75;8.75;;;;;10.56;78.50;99408.19;4993051;28;47319;-87
2022/11/21 11:05:29;;;;;;;;;12.25;10.50;;;;;10.19;78.15;99344.59;5036353;28;46158;-89
2022/11/21 11:08:06;;;;;;;;;8.50;8.50;;;;;10.46;78.67;99387.91;5037300;28;45483;-83
2022/11/21 11:10:36;;;;;;;;;12.50;11.00;;;;;10.27;78.63;99348.25;5036596;28;45261;-87
2022/11/21 11:16:08;;;;;;;;;10.25;10.00;;;;;10.53;78.64;99382.72;5033674;28;45521;-89
2022/11/21 11:18:38;;;;;;;;;14.25;12.25;;;;;10.35;78.50;99342.25;5030360;28;45615;-91
2022/11/21 11:21:21;;;;;;;;;15.25;14.00;;;;;10.50;78.52;99363.44;5036482;28;45439;-91
2022/11/21 11:23:49;;;;;;;;;18.00;17.00;;;;;10.57;78.79;99366.16;5039378;28;46156;-82
2022/11/21 11:26:33;;;;;;;;;16.50;14.25;;;;;10.64;78.53;99353.09;5036720;28;45459;-86
2022/11/21 11:29:16;;;;;;;;;15.75;14.50;;;;;10.60;78.81;99333.81;5032246;28;45620;-87
2022/11/21 11:31:43;;;;;;;;;14.25;14.00;;;;;10.65;78.94;99329.47;5030166;28;45484;-83
2022/11/21 11:34:16;;;;;;;;;12.25;11.75;;;;;10.64;78.46;99311.97;5029205;28;46322;-86
2022/11/21 11:37:10;;;;;;;;;12.75;12.75;;;;;10.66;78.36;99310.22;5031452;28;45403;-89
2022/11/21 11:39:49;;;;;;;;;14.00;11.75;;;;;10.61;78.58;99301.41;5015914;28;45483;-90
2022/11/21 11:49:29;;;;;;;;;10.00;9.25;;;;;10.35;78.30;99218.81;5033420;28;45375;-82
2022/11/21 11:52:01;;;;;;;;;10.25;9.25;;;;;10.47;78.62;99224.19;5032587;28;45473;-83
2022/11/21 11:54:46;;;;;;;;;7.75;7.75;;;;;10.48;78.84;99211.06;5014629;28;45461;-84